Terminal Aerodrome Forecast
Issued by NWS

Home | Current Version | Previous Version | Text Only | Print | Product List | Glossary On
Versions: 1 2 3 4 5 6 7 8 9 10 11 12 13 14 15 16
000
FTUS43 KIND 270520
TAFHUF
TAF
KHUF 270520Z 2706/2806 20004KT P6SM OVC050
     FM271000 VRB03KT P6SM OVC040
     FM271600 16007KT P6SM BKN050
     FM280300 13007KT P6SM BKN040=

USA.gov is the U.S. government's official web portal to all federal, state and local government web resources and services.